Trimble, OH (45782)

4:44 AM EDT on September 29, 2016 (GMT -0400)
kimberly ohio | | Change Station

Elev 830 ft 39.41 °N, 82.23 °W | Updated 8 seconds ago

Scattered Clouds
Scattered Clouds
54.7 °F
Feels Like 54.7 °F
N
0.0
Wind Variable Wind from WSW

Today
High -- | Low -- °F
--% Chance of Precip.
Yesterday
High -- | Low -- °F
Precip. -- in
Pressure 29.98 in
Visibility 10.0 miles
Clouds Scattered Clouds 3600 ft
Scattered Clouds 12000 ft
Dew Point 54 °F
Humidity 98%
Rainfall 0.00 in
Snow Depth Not available.
7:23 AM 7:13 PM
Waning Crescent, 3% visible
METAR KUNI 290830Z AUTO 00000KT 10SM SCT036 SCT120 13/13 A2998 RMK AO2 T01320132
Pressure 29.98 in
Visibility 10.0 miles
Clouds Scattered Clouds 3600 ft
Scattered Clouds 12000 ft
Dew Point 54 °F
Humidity 98%
Rainfall 0.00 in
Snow Depth Not available.
7:23 AM 7:13 PM
Waning Crescent, 3% visible
METAR KUNI 290830Z AUTO 00000KT 10SM SCT036 SCT120 13/13 A2998 RMK AO2 T01320132

10-Day Weather Forecast

Almanac

Astronomy

Sep. 29, 2016 Rise Set
Actual Time
Civil Twilight
Nautical Twilight
Astronomical Twilight
Moon
Length of Visible Light
Length of Day
Tomorrow will be .
, % of the Moon is Illuminated

Today's Extremes

State Highs State Lows

Community

WunderPhotos

Upload Photos

1,942,446 photos uploaded!

WunderBlog® & News

Nearby

Air Quality

  Air Quality AQ Index Pollutant
Not available.

Snow Depth

Station Depth Elevation

Earthquake Activity

City Distance Mag. Time & Date
Minimum magnitude displayed is 2.5.

Coastal Water Temperatures

Place Temperature

Stations

Nearby Weather Stations

Station Location Temp. Windchill Dew Point Humidity Wind Precip. Elev Updated Type
                   

Watches & Warnings

There are currently no watches in effect.